Time;durP1;ratioP1;P1;durP2;ratioP2;P2;SDS_P1;SDS_P2;PMS_P1;PMS_P2;Temp;Humidity;BMP_temperature;BMP_pressure;BME280_temperature;BME280_humidity;BME280_pressure;Samples;Min_cycle;Max_cycle;Signal;HPM_P1;HPM_P2
2020/12/18 00:01:28;;;;;;;9.20;8.18;;;;;;;4.54;90.61;99716.56;4974144;28;20228;-84
2020/12/18 00:03:55;;;;;;;12.45;9.43;;;;;;;4.51;90.87;99723.78;5087204;23;20769;-84
2020/12/18 00:06:22;;;;;;;9.27;8.00;;;;;;;4.43;90.85;99713.34;5020954;28;20201;-84
2020/12/18 00:08:48;;;;;;;9.30;7.95;;;;;;;4.43;90.94;99713.34;5015389;28;20296;-85
2020/12/18 00:11:26;;;;;;;10.27;8.55;;;;;;;4.36;90.77;99703.81;5007653;28;20222;-84
2020/12/18 00:13:53;;;;;;;11.98;8.90;;;;;;;4.32;91.00;99707.53;4987277;28;20236;-84
2020/12/18 00:16:26;;;;;;;14.35;9.65;;;;;;;4.30;90.84;99704.00;5014431;28;20336;-83
2020/12/18 00:18:53;;;;;;;13.57;9.02;;;;;;;4.28;90.90;99707.63;5007914;28;20218;-83
2020/12/18 00:21:21;;;;;;;11.70;9.27;;;;;;;4.24;90.84;99714.84;5008397;28;20242;-83
2020/12/18 00:23:48;;;;;;;14.15;9.15;;;;;;;4.22;90.86;99710.50;5031998;28;20217;-84
2020/12/18 00:26:15;;;;;;;8.45;7.45;;;;;;;4.15;91.06;99712.47;5015896;28;20210;-83
2020/12/18 00:28:42;;;;;;;11.73;8.93;;;;;;;4.17;91.15;99707.13;5022045;28;20273;-85
2020/12/18 00:31:08;;;;;;;11.32;8.95;;;;;;;4.12;91.10;99709.06;5027982;28;20230;-85
2020/12/18 00:33:35;;;;;;;10.52;9.02;;;;;;;4.15;91.20;99708.94;5003541;28;20265;-84
2020/12/18 00:36:01;;;;;;;12.05;8.45;;;;;;;4.20;91.21;99710.56;5002745;28;20209;-85
2020/12/18 00:38:27;;;;;;;13.10;8.82;;;;;;;4.15;91.28;99715.16;4995546;28;20222;-85
2020/12/18 00:40:53;;;;;;;10.80;9.32;;;;;;;4.73;89.40;99707.03;5004590;28;20230;-84
2020/12/18 00:43:20;;;;;;;13.48;9.50;;;;;;;4.61;88.65;99710.09;4976034;28;20221;-85
2020/12/18 00:45:46;;;;;;;12.30;9.27;;;;;;;4.56;88.80;99711.19;4977487;28;20232;-86
2020/12/18 00:48:12;;;;;;;13.00;9.57;;;;;;;4.37;89.51;99704.72;4997424;28;20201;-86
2020/12/18 00:50:39;;;;;;;12.50;9.38;;;;;;;4.51;90.19;99714.00;5006280;28;20687;-85
2020/12/18 00:53:05;;;;;;;13.32;10.27;;;;;;;4.39;89.22;99709.06;4988286;28;20279;-84
2020/12/18 00:55:32;;;;;;;11.23;9.00;;;;;;;4.35;89.50;99703.84;5008583;28;20226;-84
2020/12/18 00:57:59;;;;;;;10.90;9.68;;;;;;;4.41;90.09;99701.00;5010055;28;20225;-84
2020/12/18 01:00:25;;;;;;;10.13;8.75;;;;;;;4.35;89.36;99706.53;5000385;28;20218;-84
2020/12/18 01:03:04;;;;;;;9.82;8.20;;;;;;;4.42;89.79;99708.94;4994557;28;20213;-84
2020/12/18 01:05:31;;;;;;;12.20;10.25;;;;;;;4.23;89.93;99713.09;5004431;28;20282;-83
2020/12/18 01:07:58;;;;;;;10.35;9.25;;;;;;;4.19;90.25;99715.91;4997832;28;20233;-84
2020/12/18 01:10:24;;;;;;;15.13;9.57;;;;;;;4.09;90.63;99710.00;5009240;28;20282;-84
2020/12/18 01:12:51;;;;;;;13.27;8.82;;;;;;;4.03;90.87;99710.19;4981855;28;20236;-84
2020/12/18 01:15:19;;;;;;;11.52;9.07;;;;;;;3.94;90.51;99715.81;5017284;28;20182;-82
2020/12/18 01:17:45;;;;;;;15.15;11.90;;;;;;;3.90;91.05;99718.56;5006504;28;20193;-84
2020/12/18 01:20:12;;;;;;;13.65;10.25;;;;;;;3.89;90.76;99717.72;5004075;28;20218;-85
2020/12/18 01:22:38;;;;;;;12.35;8.55;;;;;;;3.80;90.56;99717.13;4992404;28;20222;-85
2020/12/18 01:25:05;;;;;;;14.30;8.80;;;;;;;3.72;90.11;99729.78;5002494;28;20222;-85
2020/12/18 01:27:32;;;;;;;16.45;9.10;;;;;;;3.72;90.55;99721.81;5004773;28;20309;-85
2020/12/18 01:30:01;;;;;;;12.85;8.70;;;;;;;3.69;90.90;99720.09;5005627;28;20208;-85
2020/12/18 01:32:36;;;;;;;14.95;8.70;;;;;;;3.73;91.06;99732.38;5002322;28;20230;-85
2020/12/18 01:35:12;;;;;;;14.60;7.97;;;;;;;3.73;91.52;99728.88;4996159;28;20218;-85
2020/12/18 01:37:56;;;;;;;18.38;9.27;;;;;;;3.76;91.76;99732.31;4965527;28;20260;-84
2020/12/18 01:40:29;;;;;;;11.52;8.25;;;;;;;3.82;91.05;99732.13;4964831;28;20266;-84
2020/12/18 01:42:57;;;;;;;12.75;8.10;;;;;;;3.78;90.64;99742.91;4974766;28;20293;-84
2020/12/18 01:45:25;;;;;;;13.50;8.90;;;;;;;3.66;90.46;99733.47;5056775;23;20210;-84
2020/12/18 01:48:10;;;;;;;12.55;8.90;;;;;;;3.59;90.84;99733.72;4992000;28;20172;-83
2020/12/18 01:51:32;;;;;;;11.95;8.63;;;;;;;3.51;91.02;99735.69;4984674;28;20209;-84
2020/12/18 01:54:04;;;;;;;13.27;9.77;;;;;;;3.44;91.21;99734.09;4974719;28;20223;-85
2020/12/18 01:56:40;;;;;;;14.63;9.95;;;;;;;3.44;91.51;99739.44;4955699;29;20310;-85
2020/12/18 01:59:18;;;;;;;14.40;10.30;;;;;;;3.46;91.85;99738.47;4968620;28;20246;-85
2020/12/18 02:02:19;;;;;;;14.27;10.13;;;;;;;3.47;91.73;99740.22;4936568;28;20257;-85
2020/12/18 02:04:57;;;;;;;18.27;11.23;;;;;;;3.45;91.83;99739.41;4945206;28;20233;-85
2020/12/18 02:07:29;;;;;;;16.30;10.73;;;;;;;3.45;91.75;99734.06;4972813;28;20298;-83
2020/12/18 02:10:16;;;;;;;16.58;10.77;;;;;;;3.37;91.81;99729.88;4968828;28;20211;-85
2020/12/18 02:12:43;;;;;;;14.93;8.80;;;;;;;3.29;91.30;99735.41;4960106;28;20235;-85
2020/12/18 02:15:26;;;;;;;11.95;8.80;;;;;;;3.21;90.60;99733.88;4956292;28;20278;-85
2020/12/18 02:18:10;;;;;;;11.55;7.78;;;;;;;3.19;90.85;99731.25;4953014;28;20635;-85
2020/12/18 02:20:39;;;;;;;14.05;8.05;;;;;;;3.18;90.65;99733.94;4965054;28;20661;-85
2020/12/18 02:23:10;;;;;;;11.93;8.63;;;;;;;3.22;90.84;99723.19;4962763;28;20289;-85
2020/12/18 02:25:40;;;;;;;13.60;8.63;;;;;;;3.18;90.80;99721.56;4977521;28;20254;-85
2020/12/18 02:28:11;;;;;;;12.68;9.20;;;;;;;3.16;90.70;99723.34;4949082;28;20256;-85
2020/12/18 02:30:38;;;;;;;10.63;8.23;;;;;;;3.09;90.77;99721.78;4946245;28;20231;-85
2020/12/18 02:33:30;;;;;;;12.65;8.25;;;;;;;3.11;90.96;99727.06;4967199;28;20254;-84
2020/12/18 02:36:08;;;;;;;15.10;9.90;;;;;;;3.05;90.69;99727.22;4950982;28;20270;-84
2020/12/18 02:38:35;;;;;;;17.10;10.40;;;;;;;3.04;90.82;99733.44;4983159;23;20270;-84
2020/12/18 02:41:02;;;;;;;18.92;11.43;;;;;;;3.01;90.54;99731.75;5042649;23;20227;-84
2020/12/18 02:43:51;;;;;;;23.13;11.50;;;;;;;3.03;90.33;99727.25;5009814;28;20269;-84
2020/12/18 02:46:18;;;;;;;15.52;10.00;;;;;;;3.07;90.25;99730.69;5019230;28;20270;-84
2020/12/18 02:48:48;;;;;;;23.23;12.73;;;;;;;3.13;90.29;99719.91;4982396;28;20249;-83
2020/12/18 02:51:25;;;;;;;15.07;11.52;;;;;;;3.11;90.08;99716.44;5010418;28;20190;-84
2020/12/18 02:54:14;;;;;;;12.35;8.52;;;;;;;3.16;90.07;99726.00;5010091;28;20244;-83
2020/12/18 02:56:57;;;;;;;12.73;8.15;;;;;;;3.23;89.47;99726.72;4985998;28;20298;-83
2020/12/18 02:59:42;;;;;;;15.07;9.10;;;;;;;3.25;89.39;99717.81;4981197;28;20225;-83
2020/12/18 03:02:09;;;;;;;15.35;9.32;;;;;;;3.35;89.54;99727.25;5025425;28;20230;-83
2020/12/18 03:04:35;;;;;;;11.98;8.10;;;;;;;3.35;89.49;99721.94;5009296;28;20638;-84
2020/12/18 03:07:16;;;;;;;9.15;7.00;;;;;;;3.48;88.62;99726.00;4999213;28;20237;-84
2020/12/18 03:09:42;;;;;;;11.38;7.75;;;;;;;3.54;88.49;99725.84;5028469;28;20237;-82
2020/12/18 03:12:08;;;;;;;9.82;7.30;;;;;;;3.39;89.15;99726.28;5032508;28;20186;-82
2020/12/18 03:14:34;;;;;;;9.43;7.60;;;;;;;3.81;86.58;99724.19;4998287;28;20236;-84
2020/12/18 03:17:15;;;;;;;8.85;7.38;;;;;;;3.78;85.27;99725.13;5016762;28;20233;-84
2020/12/18 03:19:56;;;;;;;11.00;8.25;;;;;;;3.75;85.52;99727.00;4994561;28;20221;-84
2020/12/18 03:22:47;;;;;;;11.52;8.55;;;;;;;3.61;84.91;99719.44;5018810;28;20209;-83
2020/12/18 03:25:23;;;;;;;13.20;8.55;;;;;;;3.46;85.93;99724.34;5013362;28;20233;-84
2020/12/18 03:28:00;;;;;;;13.60;9.80;;;;;;;3.42;86.65;99726.22;5011161;28;20275;-82
2020/12/18 03:30:27;;;;;;;11.00;9.02;;;;;;;3.66;85.52;99725.50;5004082;28;20199;-82
2020/12/18 03:32:59;;;;;;;12.07;8.73;;;;;;;3.38;85.85;99721.88;5017251;28;20513;-83
2020/12/18 03:35:27;;;;;;;18.73;9.52;;;;;;;3.30;87.03;99723.00;4996841;28;20217;-82
2020/12/18 03:37:54;;;;;;;20.13;10.73;;;;;;;3.13;88.08;99733.19;5007499;28;20241;-84
2020/12/18 03:40:23;;;;;;;12.95;9.90;;;;;;;3.01;88.74;99728.22;5001847;28;20622;-85
2020/12/18 03:42:55;;;;;;;18.20;10.10;;;;;;;2.96;89.87;99730.13;4999695;28;20245;-84
2020/12/18 03:45:26;;;;;;;18.20;9.30;;;;;;;2.95;90.01;99733.69;5000905;28;20204;-84
2020/12/18 03:48:04;;;;;;;14.85;9.95;;;;;;;2.89;90.42;99726.72;5004440;28;20695;-83
2020/12/18 03:50:44;;;;;;;17.58;10.40;;;;;;;2.85;90.53;99725.09;4996294;28;20255;-84
2020/12/18 03:53:21;;;;;;;13.85;9.25;;;;;;;2.81;90.25;99736.69;4982897;28;20214;-85
2020/12/18 03:55:57;;;;;;;17.10;9.60;;;;;;;2.83;90.51;99726.88;4997066;28;20244;-84
2020/12/18 03:58:49;;;;;;;17.35;9.57;;;;;;;2.86;90.62;99732.13;4991019;28;20257;-83
2020/12/18 04:01:24;;;;;;;16.98;9.98;;;;;;;2.87;91.58;99725.91;5023925;28;20230;-83
2020/12/18 04:03:54;;;;;;;19.48;10.35;;;;;;;2.95;92.02;99723.91;5004604;28;20245;-84
2020/12/18 04:06:21;;;;;;;16.00;10.25;;;;;;;2.99;91.96;99716.75;5005933;28;20217;-82
2020/12/18 04:08:48;;;;;;;14.93;9.65;;;;;;;3.05;92.01;99724.56;5010601;28;20202;-84
2020/12/18 04:11:22;;;;;;;18.55;9.27;;;;;;;3.08;91.71;99721.84;5028061;28;20244;-84
2020/12/18 04:13:57;;;;;;;16.88;9.70;;;;;;;3.06;91.45;99727.19;5013025;23;20222;-84
2020/12/18 04:16:32;;;;;;;21.42;9.93;;;;;;;3.14;91.17;99719.03;5000853;28;20321;-85
2020/12/18 04:18:59;;;;;;;16.67;10.07;;;;;;;3.16;91.50;99717.19;4969952;28;20309;-85
2020/12/18 04:21:27;;;;;;;18.90;9.60;;;;;;;3.17;91.20;99711.84;4986581;28;20261;-85
2020/12/18 04:24:10;;;;;;;18.88;10.32;;;;;;;3.17;90.89;99717.16;4997835;28;20226;-85
2020/12/18 04:26:39;;;;;;;15.00;8.55;;;;;;;3.19;90.41;99717.09;4981497;28;20281;-85
2020/12/18 04:29:07;;;;;;;19.52;8.75;;;;;;;3.15;90.68;99724.28;4997847;28;20225;-85
2020/12/18 04:31:35;;;;;;;21.08;9.13;;;;;;;3.06;90.25;99711.25;5008590;28;20253;-85
2020/12/18 04:34:01;;;;;;;13.32;8.82;;;;;;;3.18;90.35;99704.72;4992009;28;20233;-85
2020/12/18 04:36:44;;;;;;;18.80;9.60;;;;;;;3.21;90.18;99704.66;4999518;28;20272;-85
2020/12/18 04:39:13;;;;;;;15.52;7.82;;;;;;;3.21;90.00;99702.84;4989415;28;20658;-86
2020/12/18 04:41:41;;;;;;;19.13;7.53;;;;;;;3.24;89.98;99702.78;4995497;28;20261;-84
2020/12/18 04:44:13;;;;;;;17.20;8.48;;;;;;;3.22;89.73;99704.59;5011776;28;20237;-84
2020/12/18 04:46:56;;;;;;;20.45;7.60;;;;;;;3.27;89.88;99709.81;5008368;28;20210;-83
2020/12/18 04:49:25;;;;;;;22.92;7.88;;;;;;;3.23;89.57;99705.47;5015330;28;20218;-83
2020/12/18 04:52:09;;;;;;;21.10;9.10;;;;;;;3.21;89.62;99710.81;5019588;28;20207;-83
2020/12/18 04:54:44;;;;;;;13.75;8.07;;;;;;;3.30;89.66;99707.94;4976875;28;20225;-84
2020/12/18 04:57:33;;;;;;;14.77;8.25;;;;;;;3.31;89.51;99707.00;5004590;28;20240;-85
2020/12/18 05:00:05;;;;;;;23.92;8.13;;;;;;;3.35;89.75;99707.78;5013907;28;20267;-85
2020/12/18 05:03:21;;;;;;;19.75;8.50;;;;;;;3.32;89.66;99711.41;5000135;28;20328;-85
2020/12/18 05:05:48;;;;;;;20.52;8.32;;;;;;;3.36;89.72;99715.75;5043030;28;20207;-84
2020/12/18 05:08:17;;;;;;;26.67;8.75;;;;;;;3.35;89.92;99713.13;4999060;28;20599;-84
2020/12/18 05:10:43;;;;;;;21.27;7.93;;;;;;;3.36;90.63;99709.53;4972214;28;20234;-84
2020/12/18 05:13:19;;;;;;;21.77;11.45;;;;;;;3.59;90.96;99721.25;4979707;28;20236;-84
2020/12/18 05:15:58;;;;;;;26.75;9.98;;;;;;;3.57;90.73;99722.22;4992610;28;20229;-84
2020/12/18 05:18:43;;;;;;;38.95;10.15;;;;;;;3.59;91.25;99737.22;4984350;28;20237;-83
2020/12/18 05:21:24;;;;;;;17.27;9.48;;;;;;;3.48;91.20;99725.16;5002305;28;20215;-83
2020/12/18 05:24:00;;;;;;;23.58;9.80;;;;;;;3.48;91.70;99731.31;4996271;28;20221;-84
2020/12/18 05:26:34;;;;;;;17.45;9.73;;;;;;;3.50;91.82;99732.16;5009463;28;20218;-84
2020/12/18 05:29:05;;;;;;;17.58;9.98;;;;;;;3.42;92.10;99725.31;5015838;28;20226;-84
2020/12/18 05:31:37;;;;;;;19.42;12.10;;;;;;;3.46;92.59;99727.84;5000155;28;20228;-84
2020/12/18 05:34:14;;;;;;;23.10;10.23;;;;;;;3.50;92.70;99724.19;5013271;28;20221;-83
2020/12/18 05:36:59;;;;;;;18.25;9.77;;;;;;;3.55;92.99;99719.63;4985766;28;20347;-83
2020/12/18 05:39:52;;;;;;;20.83;10.25;;;;;;;3.49;93.21;99730.44;4998414;28;20236;-83
2020/12/18 05:42:29;;;;;;;29.15;9.43;;;;;;;3.38;93.66;99724.53;4998714;28;20240;-84
2020/12/18 05:45:10;;;;;;;15.57;8.35;;;;;;;3.74;92.66;99723.50;5012359;28;20256;-85
2020/12/18 05:48:00;;;;;;;15.10;7.22;;;;;;;3.66;93.06;99728.16;5011103;28;20313;-83
2020/12/18 05:50:40;;;;;;;16.70;8.70;;;;;;;3.60;93.30;99720.34;5008765;28;20229;-84
2020/12/18 05:53:11;;;;;;;20.73;7.57;;;;;;;3.58;93.83;99727.50;4992671;28;20226;-83
2020/12/18 05:55:45;;;;;;;10.77;6.47;;;;;;;3.77;93.59;99728.72;5009557;28;20258;-84
2020/12/18 05:58:30;;;;;;;12.73;6.88;;;;;;;3.93;93.31;99718.50;5024230;28;20285;-86
2020/12/18 06:01:16;;;;;;;16.80;8.68;;;;;;;3.74;93.60;99723.50;5003032;28;20241;-84
2020/12/18 06:04:09;;;;;;;13.50;7.95;;;;;;;3.59;93.97;99725.72;5018039;28;20231;-84
2020/12/18 06:06:40;;;;;;;25.60;8.80;;;;;;;3.54;94.55;99723.16;5005190;28;20233;-84
2020/12/18 06:09:10;;;;;;;15.35;7.60;;;;;;;3.58;94.97;99722.19;5037289;28;20245;-84
2020/12/18 06:11:37;;;;;;;11.07;7.30;;;;;;;3.69;95.24;99727.19;4991548;28;20249;-83
2020/12/18 06:14:10;;;;;;;16.25;7.50;;;;;;;3.66;95.11;99725.50;5017860;28;20221;-82
2020/12/18 06:16:54;;;;;;;14.70;8.02;;;;;;;3.68;95.21;99713.03;5015162;28;20213;-84
2020/12/18 06:19:36;;;;;;;12.80;7.18;;;;;;;3.67;94.98;99713.06;5001722;28;20237;-84
2020/12/18 06:22:06;;;;;;;30.30;17.63;;;;;;;3.59;94.83;99717.75;5009695;28;20221;-84
2020/12/18 06:24:56;;;;;;;15.85;9.57;;;;;;;3.63;95.03;99714.97;5011963;28;20238;-85
2020/12/18 06:27:42;;;;;;;9.77;6.57;;;;;;;3.54;94.55;99717.84;5020542;28;20230;-84
2020/12/18 06:30:14;;;;;;;11.98;7.07;;;;;;;3.48;93.91;99731.31;4997769;28;20289;-85
2020/12/18 06:32:59;;;;;;;8.75;6.00;;;;;;;3.38;93.28;99724.53;4999862;28;20303;-84
2020/12/18 06:35:48;;;;;;;10.98;7.60;;;;;;;3.38;93.51;99727.19;5006974;28;20277;-84
2020/12/18 06:38:23;;;;;;;8.38;4.63;;;;;;;3.49;93.77;99722.47;4995122;28;20218;-85
2020/12/18 06:41:25;;;;;;;9.00;5.60;;;;;;;3.48;93.72;99726.00;4974583;28;20233;-85
2020/12/18 06:44:26;;;;;;;15.68;5.50;;;;;;;3.40;94.12;99722.69;4985744;28;20234;-85
2020/12/18 06:47:14;;;;;;;11.55;5.82;;;;;;;3.60;94.25;99720.34;4976031;28;20223;-85
2020/12/18 06:50:08;;;;;;;9.30;4.90;;;;;;;3.42;93.71;99728.88;4987824;28;20233;-84
2020/12/18 06:52:58;;;;;;;7.28;3.78;;;;;;;3.39;93.82;99723.63;4982382;28;20238;-85
2020/12/18 06:55:43;;;;;;;7.43;4.63;;;;;;;3.32;93.90;99727.34;5006683;28;20329;-85
2020/12/18 06:58:38;;;;;;;6.13;3.80;;;;;;;3.34;93.77;99728.19;4993420;28;20225;-85
2020/12/18 07:01:04;;;;;;;9.55;6.43;;;;;;;3.32;93.91;99719.38;5025049;28;20206;-83
2020/12/18 07:03:42;;;;;;;14.63;6.40;;;;;;;3.14;93.91;99725.19;5005398;28;20330;-83
2020/12/18 07:06:28;;;;;;;12.93;6.40;;;;;;;3.32;93.81;99718.50;4998104;28;20209;-84
2020/12/18 07:08:57;;;;;;;11.65;7.03;;;;;;;3.24;94.19;99729.34;4989907;28;20228;-84
2020/12/18 07:11:24;;;;;;;8.95;6.63;;;;;;;3.34;94.30;99722.00;5003962;28;20294;-84
2020/12/18 07:14:00;;;;;;;11.98;5.28;;;;;;;3.39;94.20;99720.97;5004886;28;20258;-84
2020/12/18 07:16:26;;;;;;;6.57;5.10;;;;;;;3.48;94.13;99723.34;4994262;28;20309;-84
2020/12/18 07:18:58;;;;;;;9.43;5.00;;;;;;;3.33;93.31;99725.59;4953558;28;20670;-84
2020/12/18 07:21:24;;;;;;;14.05;8.65;;;;;;;3.36;93.01;99725.47;4990264;28;20231;-84
2020/12/18 07:23:52;;;;;;;6.90;5.07;;;;;;;3.29;93.61;99723.91;5009534;28;20222;-84
2020/12/18 07:26:20;;;;;;;14.32;4.82;;;;;;;3.57;93.37;99724.88;4993503;28;20219;-84
2020/12/18 07:28:47;;;;;;;20.65;5.22;;;;;;;3.65;91.39;99729.06;4979569;28;20249;-84
2020/12/18 07:31:25;;;;;;;7.00;3.90;;;;;;;3.42;91.33;99727.97;4974353;28;20303;-84
2020/12/18 07:33:57;;;;;;;26.38;6.38;;;;;;;3.41;91.95;99721.78;4979784;28;20257;-84
2020/12/18 07:36:26;;;;;;;6.43;4.43;;;;;;;3.30;91.80;99725.66;4990680;28;20653;-85
2020/12/18 07:38:57;;;;;;;19.50;6.63;;;;;;;3.25;91.53;99728.44;5007498;28;20206;-85
2020/12/18 07:41:29;;;;;;;8.02;4.00;;;;;;;3.16;91.45;99722.50;4983032;28;20290;-85
2020/12/18 07:44:07;;;;;;;18.10;5.20;;;;;;;3.14;90.88;99730.50;4996222;28;20261;-85
2020/12/18 07:46:35;;;;;;;8.00;5.60;;;;;;;3.12;90.78;99729.69;4983935;28;20222;-84
2020/12/18 07:49:14;;;;;;;10.65;8.38;;;;;;;3.11;90.43;99733.25;4977413;28;20337;-85
2020/12/18 07:51:43;;;;;;;9.82;6.07;;;;;;;3.07;90.39;99734.22;4956383;28;20230;-85
2020/12/18 07:54:39;;;;;;;7.20;5.25;;;;;;;3.05;90.55;99728.09;5110914;23;20230;-85
2020/12/18 07:57:30;;;;;;;13.75;6.85;;;;;;;3.01;90.46;99729.06;4972602;28;20304;-84
2020/12/18 08:00:36;;;;;;;12.90;6.38;;;;;;;3.01;90.40;99723.75;4974305;28;20252;-84
2020/12/18 08:03:05;;;;;;;14.15;6.85;;;;;;;3.00;90.58;99727.34;4981737;28;20297;-85
2020/12/18 08:05:31;;;;;;;13.52;6.32;;;;;;;3.04;90.28;99725.47;4994631;28;20249;-85
2020/12/18 08:07:58;;;;;;;11.13;6.50;;;;;;;3.01;89.29;99731.75;4998072;28;20240;-85
2020/12/18 08:10:24;;;;;;;8.20;6.32;;;;;;;3.10;89.23;99731.50;5003948;28;20304;-85
2020/12/18 08:12:55;;;;;;;7.63;5.85;;;;;;;3.15;88.54;99726.94;4996463;28;20222;-85
2020/12/18 08:15:46;;;;;;;6.72;4.88;;;;;;;3.24;88.31;99732.00;4989685;28;20214;-85
2020/12/18 08:18:16;;;;;;;7.85;4.85;;;;;;;3.32;87.52;99726.47;5005035;28;20209;-84
2020/12/18 08:21:18;;;;;;;8.20;5.38;;;;;;;3.36;86.79;99723.72;4997092;28;20201;-85
2020/12/18 08:23:47;;;;;;;7.05;4.75;;;;;;;3.38;86.55;99719.22;5002348;28;20320;-85
2020/12/18 08:26:15;;;;;;;5.60;4.30;;;;;;;3.60;85.63;99724.81;5003925;28;20237;-85
2020/12/18 08:29:23;;;;;;;5.20;4.55;;;;;;;3.53;85.54;99724.09;4994585;28;20329;-84
2020/12/18 08:31:59;;;;;;;5.65;4.50;;;;;;;3.61;84.81;99727.41;4987275;28;20289;-84
2020/12/18 08:34:27;;;;;;;6.80;5.90;;;;;;;3.68;84.17;99729.00;5006150;28;20265;-85
2020/12/18 08:36:54;;;;;;;8.75;5.32;;;;;;;3.77;83.46;99722.50;4979814;28;20233;-85
2020/12/18 08:39:21;;;;;;;6.22;5.15;;;;;;;3.69;83.74;99725.41;4996689;28;20230;-85
2020/12/18 08:41:54;;;;;;;8.52;6.32;;;;;;;3.73;83.36;99723.53;5030321;28;20228;-84
2020/12/18 08:44:25;;;;;;;7.00;5.97;;;;;;;3.67;83.36;99723.72;4995653;28;20309;-85
2020/12/18 08:46:57;;;;;;;6.45;5.38;;;;;;;3.65;83.73;99718.44;4991497;28;20222;-85
2020/12/18 08:49:28;;;;;;;7.50;5.75;;;;;;;3.67;83.35;99713.06;4989284;28;20297;-85
2020/12/18 08:52:02;;;;;;;5.78;4.97;;;;;;;3.66;83.47;99709.53;5001816;28;20250;-86
2020/12/18 08:54:34;;;;;;;7.30;5.70;;;;;;;3.59;83.13;99707.97;5021839;28;20247;-85
2020/12/18 08:57:22;;;;;;;5.65;5.05;;;;;;;3.44;83.69;99711.06;5018797;28;20174;-85
2020/12/18 09:00:07;;;;;;;7.07;5.60;;;;;;;3.57;83.38;99715.13;5017968;28;20229;-85
2020/12/18 09:03:00;;;;;;;6.18;5.30;;;;;;;3.48;83.62;99720.69;5007996;28;20304;-85
2020/12/18 09:06:12;;;;;;;8.13;6.88;;;;;;;3.48;84.05;99720.69;4960352;28;20221;-86
2020/12/18 09:09:09;;;;;;;18.90;16.10;;;;;;;3.88;82.65;99723.09;4993258;28;20222;-84
2020/12/18 09:11:40;;;;;;;8.77;7.35;;;;;;;3.70;83.24;99720.94;4939826;28;20218;-85
2020/12/18 09:14:06;;;;;;;7.07;4.85;;;;;;;3.67;83.51;99716.59;4994502;28;20238;-84
2020/12/18 09:16:34;;;;;;;6.18;5.60;;;;;;;3.49;83.68;99716.25;4984526;28;20226;-84
2020/12/18 09:19:01;;;;;;;8.60;5.70;;;;;;;3.49;84.37;99708.28;4985356;28;20604;-85
2020/12/18 09:21:28;;;;;;;7.10;6.10;;;;;;;3.54;84.67;99712.53;4996685;28;20226;-84
2020/12/18 09:23:54;;;;;;;8.43;6.78;;;;;;;3.69;84.49;99714.78;4980726;28;20222;-86
2020/12/18 09:26:28;;;;;;;7.75;6.00;;;;;;;3.78;83.94;99714.50;4994801;28;20225;-84
2020/12/18 09:28:55;;;;;;;7.82;5.95;;;;;;;3.82;84.11;99705.53;4997007;28;20222;-84
2020/12/18 09:31:23;;;;;;;7.88;6.32;;;;;;;3.91;84.08;99715.03;5000646;28;20220;-84
2020/12/18 09:33:57;;;;;;;7.50;5.60;;;;;;;3.93;84.15;99716.69;4973028;28;20234;-82
2020/12/18 09:36:24;;;;;;;7.43;5.75;;;;;;;3.97;84.06;99710.38;4994285;28;20576;-83
2020/12/18 09:38:52;;;;;;;6.78;6.07;;;;;;;3.90;83.91;99703.50;5010279;28;20204;-85
2020/12/18 09:41:21;;;;;;;7.68;6.18;;;;;;;4.06;84.31;99710.13;5005760;28;20218;-84
2020/12/18 09:43:48;;;;;;;28.75;22.55;;;;;;;4.21;83.89;99708.75;5001517;28;20245;-84
2020/12/18 09:46:15;;;;;;;40.83;33.10;;;;;;;4.31;83.56;99704.91;5011177;28;20229;-87
2020/12/18 09:49:06;;;;;;;8.88;7.70;;;;;;;4.80;81.12;99705.06;4997425;28;20262;-85
2020/12/18 09:51:34;;;;;;;6.43;5.25;;;;;;;4.83;80.46;99699.63;5004988;28;20236;-84
2020/12/18 09:54:00;;;;;;;8.23;5.93;;;;;;;4.88;79.53;99700.34;5007038;28;20227;-84
2020/12/18 09:56:37;;;;;;;6.88;5.53;;;;;;;4.91;79.75;99698.44;5011314;28;20229;-84
2020/12/18 09:59:03;;;;;;;8.50;6.50;;;;;;;4.98;79.35;99699.97;4999066;28;20229;-84
2020/12/18 10:01:55;;;;;;;7.63;5.90;;;;;;;5.14;78.81;99695.84;5005245;28;20487;-82
2020/12/18 10:04:26;;;;;;;8.43;6.30;;;;;;;5.18;78.70;99692.16;5015607;28;20214;-85
2020/12/18 10:06:52;;;;;;;12.13;8.10;;;;;;;5.31;78.75;99682.78;4996631;28;20223;-84
2020/12/18 10:09:19;;;;;;;16.55;11.88;;;;;;;5.37;78.60;99687.91;5003945;28;20198;-84
2020/12/18 10:11:59;;;;;;;13.98;9.68;;;;;;;5.49;78.59;99683.91;4997231;28;20249;-83
2020/12/18 10:14:26;;;;;;;11.95;8.50;;;;;;;5.51;78.33;99679.41;4987295;28;20702;-84
2020/12/18 10:16:56;;;;;;;15.23;10.27;;;;;;;5.66;78.12;99669.06;4916937;28;20240;-85
2020/12/18 10:19:22;;;;;;;14.38;12.65;;;;;;;5.82;77.92;99664.88;4990641;28;20710;-85
2020/12/18 10:21:48;;;;;;;14.85;9.77;;;;;;;5.92;77.51;99660.97;4983883;28;20393;-85
2020/12/18 10:24:15;;;;;;;13.70;10.13;;;;;;;5.88;78.20;99662.00;4998937;28;20304;-85
2020/12/18 10:26:53;;;;;;;14.85;11.18;;;;;;;5.89;78.93;99649.53;4989011;28;20224;-85
2020/12/18 10:29:29;;;;;;;16.75;12.32;;;;;;;5.91;78.64;99656.50;5000951;28;20226;-85
2020/12/18 10:31:56;;;;;;;31.30;19.40;;;;;;;5.96;78.42;99648.38;4996948;28;20230;-85
2020/12/18 10:34:23;;;;;;;19.10;13.30;;;;;;;5.97;78.76;99652.75;5006974;28;20269;-85
2020/12/18 10:36:55;;;;;;;21.55;13.45;;;;;;;6.10;78.70;99645.09;4976706;28;20398;-85
2020/12/18 10:39:23;;;;;;;23.42;14.70;;;;;;;5.91;79.37;99639.66;4972146;28;20187;-85
2020/12/18 10:41:53;;;;;;;22.00;14.13;;;;;;;6.01;79.38;99636.56;5016585;28;20218;-85
2020/12/18 10:44:21;;;;;;;26.88;16.08;;;;;;;6.03;79.82;99632.03;4986274;28;20225;-87
2020/12/18 10:46:48;;;;;;;32.45;16.90;;;;;;;6.03;79.83;99634.69;5018316;28;20222;-85
2020/12/18 10:49:17;;;;;;;20.15;13.20;;;;;;;6.13;79.94;99628.06;4992651;28;20237;-89
2020/12/18 10:51:45;;;;;;;19.52;10.52;;;;;;;6.08;80.41;99635.38;5002673;28;20219;-87
2020/12/18 10:54:12;;;;;;;10.63;8.70;;;;;;;5.91;80.85;99627.16;5012387;28;20717;-88
2020/12/18 10:56:44;;;;;;;16.05;10.20;;;;;;;5.74;81.72;99629.59;4976406;28;20202;-89
2020/12/18 10:59:11;;;;;;;13.25;9.38;;;;;;;5.72;81.57;99626.09;5002601;28;20301;-89
2020/12/18 11:01:40;;;;;;;12.13;9.10;;;;;;;5.65;82.57;99618.41;5017679;28;20238;-89
2020/12/18 11:04:06;;;;;;;13.93;10.63;;;;;;;5.50;83.33;99614.53;5003354;28;20247;-88
2020/12/18 11:06:37;;;;;;;15.55;9.23;;;;;;;5.62;83.33;99618.50;5006111;28;20329;-89
2020/12/18 11:09:03;;;;;;;13.18;9.70;;;;;;;5.71;82.75;99619.03;4998835;28;20198;-89
2020/12/18 11:11:29;;;;;;;15.13;9.85;;;;;;;5.86;82.13;99612.28;4984416;28;20210;-88
2020/12/18 11:13:56;;;;;;;19.55;12.68;;;;;;;5.67;82.62;99614.75;5000765;28;20230;-89
2020/12/18 11:16:27;;;;;;;15.18;10.07;;;;;;;5.43;83.89;99610.34;4986364;28;20252;-89
2020/12/18 11:18:53;;;;;;;15.30;11.15;;;;;;;5.54;84.54;99605.50;5009103;28;20249;-89
2020/12/18 11:21:19;;;;;;;15.40;10.20;;;;;;;5.68;84.00;99605.81;5017410;28;20195;-88
2020/12/18 11:23:46;;;;;;;19.10;11.50;;;;;;;5.95;83.43;99604.78;5005612;28;20241;-90
2020/12/18 11:26:12;;;;;;;23.33;12.27;;;;;;;6.14;82.57;99597.75;5013139;28;20210;-91
2020/12/18 11:28:41;;;;;;;14.35;11.30;;;;;;;6.22;81.81;99606.31;4986440;28;20245;-89
2020/12/18 11:31:07;;;;;;;13.38;8.95;;;;;;;6.31;81.62;99605.97;5017523;28;20256;-89
2020/12/18 11:33:33;;;;;;;13.00;9.50;;;;;;;6.13;82.16;99596.88;5012747;28;20237;-88
2020/12/18 11:36:00;;;;;;;13.02;10.07;;;;;;;6.19;82.45;99606.47;5004430;28;20204;-88
2020/12/18 11:38:27;;;;;;;11.38;9.18;;;;;;;6.18;82.42;99604.72;4995132;28;20342;-89
2020/12/18 11:40:53;;;;;;;12.63;10.07;;;;;;;6.39;82.21;99610.06;4999623;28;20232;-89
2020/12/18 11:43:21;;;;;;;16.95;10.32;;;;;;;6.40;82.23;99610.91;4986385;28;20234;-88
2020/12/18 11:45:47;;;;;;;13.13;9.75;;;;;;;6.49;82.71;99600.72;4999175;28;20313;-88
2020/12/18 11:48:42;;;;;;;27.48;19.08;;;;;;;6.61;82.04;99597.53;4982839;28;20209;-88
2020/12/18 11:51:08;;;;;;;12.98;9.75;;;;;;;6.72;81.60;99589.06;4986567;28;20205;-87
2020/12/18 11:53:36;;;;;;;14.02;9.77;;;;;;;6.55;82.25;99589.78;5035523;28;20265;-90
2020/12/18 11:56:16;;;;;;;17.25;9.40;;;;;;;6.53;83.20;99585.44;5020496;28;20208;-90
2020/12/18 11:58:42;;;;;;;10.20;8.50;;;;;;;6.71;82.28;99585.53;5017335;28;20294;-90
2020/12/18 12:01:09;;;;;;;11.18;7.03;;;;;;;6.70;82.60;99582.94;5004921;28;20218;-90
2020/12/18 12:03:44;;;;;;;15.35;9.60;;;;;;;6.75;82.16;99580.94;5017311;28;20257;-90
2020/12/18 12:06:13;;;;;;;17.48;9.27;;;;;;;6.67;82.60;99577.69;5000353;28;20209;-88